Synergy — WCZ5278 — position and weather

sailwx.info

Track history (hours):
 
Tides and Currents Weather Stations Pressure Air Temp Water Temp Dewpoint Dewpoint Depression Visibility Wind Speed Wind Dir Waves Ship Positions

Synergy

Owner: ERGON MARINE & INDUSTRIAL SUPPLY, VICKSBURG, MS. More information available from US FCC via Universal Licensing System.

Last reported at 2018-Jan-23 16:00 UTC. Time now 2018-Jan-23 16:15 UTC.
Position N 32°22' W 090°53'.

MMSI: 367101470.

Date/timePositionNaut miles runAvg speedWind from/ knotsBaromVisibWave heightAir tempDewpointWater temp
2018-Jan-23 16:00N 32°22' W 090°53'1 2.6
2018-Jan-23 15:30N 32°23' W 090°54'1 2.6
2018-Jan-23 15:00N 32°22' W 090°53'3 5.8
2018-Jan-23 14:30N 32°21' W 090°55'3 5.7
2018-Jan-23 13:58N 32°21' W 090°59'2 3.3
2018-Jan-23 13:30N 32°21' W 090°57'3 5.9
2018-Jan-23 13:00N 32°20' W 090°54'1 1.9
2018-Jan-23 12:30N 32°21' W 090°53'2 3.3
2018-Jan-23 12:01N 32°20' W 090°54'0 0.0
2018-Jan-23 11:30N 32°20' W 090°54'1 2.1
2018-Jan-23 11:00N 32°21' W 090°53'1 1.8
2018-Jan-23 10:30N 32°21' W 090°53'0 0.0
2018-Jan-23 10:00N 32°21' W 090°53'0 0.0
2018-Jan-23 09:30N 32°21' W 090°53'0 0.0
2018-Jan-23 09:00N 32°21' W 090°53'0 0.0
2018-Jan-23 08:30N 32°21' W 090°53'0 0.0
2018-Jan-23 08:00N 32°21' W 090°53'3 5.2
2018-Jan-23 07:30N 32°19' W 090°54'1 2.5
2018-Jan-23 07:00N 32°18' W 090°55'3 5.4
2018-Jan-23 06:30N 32°20' W 090°54'1 1.5
2018-Jan-23 06:00N 32°21' W 090°53'2 3.6
2018-Jan-23 05:30N 32°23' W 090°53'1 1.6
2018-Jan-23 05:00N 32°23' W 090°53'0 0.0
2018-Jan-23 04:30N 32°23' W 090°53'0 0.1
2018-Jan-23 04:00N 32°23' W 090°54'0 0.5
2018-Jan-23 03:30N 32°23' W 090°53'0 0.1
2018-Jan-23 03:00N 32°23' W 090°53'0 0.0
2018-Jan-23 02:30N 32°23' W 090°53'0 0.3
2018-Jan-23 02:00N 32°23' W 090°53'1 2.4
2018-Jan-23 01:30N 32°22' W 090°53'1 2.7
2018-Jan-23 01:00N 32°21' W 090°53'2 3.1
2018-Jan-23 00:30N 32°20' W 090°54'0 0.0
2018-Jan-23 00:01N 32°20' W 090°54'0 0.0
2018-Jan-22 23:30N 32°20' W 090°54'3 5.9
2018-Jan-22 22:58N 32°23' W 090°52'1 2.2
2018-Jan-22 22:30N 32°23' W 090°53'0 0.0
2018-Jan-22 22:00N 32°23' W 090°53'0 0.0
2018-Jan-22 21:30N 32°23' W 090°53'0 0.0
2018-Jan-22 21:00N 32°23' W 090°53'1 1.1
2018-Jan-22 20:30N 32°23' W 090°54'1 1.2
2018-Jan-22 20:00N 32°23' W 090°53'0 0.1
2018-Jan-22 19:30N 32°23' W 090°53'0 0.0
2018-Jan-22 19:00N 32°23' W 090°53'0 0.0
2018-Jan-22 18:30N 32°23' W 090°53'0 0.0
2018-Jan-22 18:00N 32°23' W 090°53'0 0.0
2018-Jan-22 17:30N 32°23' W 090°53'0 0.0
2018-Jan-22 17:00N 32°23' W 090°53'0 0.0
2018-Jan-22 16:30N 32°23' W 090°53'0 0.0
2018-Jan-22 15:59N 32°23' W 090°53'0 0.0
2018-Jan-22 15:30N 32°23' W 090°53'0 0.3
2018-Jan-22 15:00N 32°23' W 090°53'0 0.7
2018-Jan-22 14:30N 32°23' W 090°53'1 2.8
2018-Jan-22 14:00N 32°22' W 090°53'2 4.1
2018-Jan-22 13:30N 32°20' W 090°54'0 0.3
2018-Jan-22 13:00N 32°20' W 090°54'0 0.0
2018-Jan-22 12:31N 32°20' W 090°54'0 0.0
2018-Jan-22 12:00N 32°20' W 090°54'0 0.0
2018-Jan-22 11:30N 32°20' W 090°54'3 5.3
2018-Jan-22 11:00N 32°22' W 090°53'1 1.3
2018-Jan-22 10:30N 32°22' W 090°53'0 0.0
2018-Jan-22 09:55N 32°22' W 090°53'0 0.0
2018-Jan-22 09:29N 32°22' W 090°53'0 0.0
2018-Jan-22 08:56N 32°22' W 090°53'0 0.0
2018-Jan-22 08:29N 32°22' W 090°53'0 0.0
2018-Jan-22 07:54N 32°22' W 090°53'0 0.7
2018-Jan-22 07:30N 32°22' W 090°53'1 2.6
2018-Jan-22 07:00N 32°21' W 090°53'1 2.1
2018-Jan-22 06:30N 32°20' W 090°54'2 4.1
2018-Jan-22 06:00N 32°21' W 090°56'0 0.2
2018-Jan-22 05:30N 32°21' W 090°56'2 3.4
2018-Jan-22 05:00N 32°21' W 090°55'3 5.6
2018-Jan-22 04:30N 32°23' W 090°53'1 1.6
2018-Jan-22 04:00N 32°23' W 090°53'0 0.0
2018-Jan-22 03:30N 32°23' W 090°53'0 0.0
2018-Jan-22 03:01N 32°23' W 090°53'0 0.1
2018-Jan-22 02:30N 32°23' W 090°53'0 0.9
2018-Jan-22 02:00N 32°23' W 090°54'1 2.4
2018-Jan-22 01:30N 32°23' W 090°53'1 2.5
2018-Jan-22 01:00N 32°22' W 090°53'2 4.3
2018-Jan-22 00:30N 32°20' W 090°54'0 0.0
2018-Jan-22 00:00N 32°20' W 090°54'1 2.0
2018-Jan-21 23:30N 32°21' W 090°54'2 4.9
2018-Jan-21 23:00N 32°23' W 090°53'1 1.7
2018-Jan-21 22:30N 32°23' W 090°54'0 0.2
2018-Jan-21 22:00N 32°23' W 090°53'1 1.0
2018-Jan-21 21:30N 32°23' W 090°54'0 0.3
2018-Jan-21 21:00N 32°23' W 090°54'0 0.3
2018-Jan-21 20:30N 32°23' W 090°54'1 1.1
2018-Jan-21 20:00N 32°23' W 090°53'0 0.0
2018-Jan-21 19:30N 32°23' W 090°53'0 0.0
2018-Jan-21 19:00N 32°23' W 090°53'0 0.0
2018-Jan-21 18:30N 32°23' W 090°53'0 0.0
2018-Jan-21 17:59N 32°23' W 090°53'0 0.2
2018-Jan-21 17:30N 32°23' W 090°53'0 1.0
2018-Jan-21 17:00N 32°23' W 090°53'2 4.7
2018-Jan-21 16:30N 32°21' W 090°53'2 3.5
2018-Jan-21 16:00N 32°22' W 090°53'1 2.1
2018-Jan-21 15:30N 32°23' W 090°53'1 1.7
2018-Jan-21 15:00N 32°23' W 090°52'1 1.1
2018-Jan-21 14:30N 32°22' W 090°53'1 2.1
2018-Jan-21 14:00N 32°21' W 090°53'2 3.4
2018-Jan-21 13:30N 32°20' W 090°54'0 0.0
2018-Jan-21 13:00N 32°20' W 090°54'0 0.0
2018-Jan-21 12:30N 32°20' W 090°54'0 0.0
2018-Jan-21 12:00N 32°20' W 090°54'0 0.0
2018-Jan-21 11:30N 32°20' W 090°54'4 7.0
2018-Jan-21 11:00N 32°23' W 090°53'1 1.0
2018-Jan-21 10:30N 32°23' W 090°53'0 0.0
2018-Jan-21 10:00N 32°23' W 090°53'0 0.0
2018-Jan-21 09:30N 32°23' W 090°53'0 0.0
2018-Jan-21 09:00N 32°23' W 090°53'0 0.0
2018-Jan-21 08:29N 32°23' W 090°53'0 0.0
2018-Jan-21 08:00N 32°23' W 090°53'0 0.0
2018-Jan-21 07:29N 32°23' W 090°53'0 0.0
2018-Jan-21 07:00N 32°23' W 090°53'0 0.0
2018-Jan-21 06:30N 32°23' W 090°53'0 0.0
2018-Jan-21 06:00N 32°23' W 090°53'0 0.0
2018-Jan-21 05:30N 32°23' W 090°53'0 0.0
2018-Jan-21 05:00N 32°23' W 090°53'0 0.8
2018-Jan-21 04:30N 32°23' W 090°53'0 0.2
2018-Jan-21 04:00N 32°23' W 090°53'1 1.6
2018-Jan-21 03:30N 32°22' W 090°53'0 0.1
2018-Jan-21 03:00N 32°22' W 090°53'0 0.6
2018-Jan-21 02:30N 32°23' W 090°52'0 0.7
2018-Jan-21 02:00N 32°23' W 090°53'0 0.3
2018-Jan-21 01:30N 32°23' W 090°53'2 4.5
2018-Jan-21 01:00N 32°21' W 090°53'1 2.4
2018-Jan-21 00:30N 32°20' W 090°54'2 4.6
2018-Jan-21 00:00N 32°22' W 090°53'2 3.5
2018-Jan-20 23:30N 32°23' W 090°54'0 0.0
2018-Jan-20 23:00N 32°23' W 090°54'1 2.2
2018-Jan-20 22:30N 32°23' W 090°53'3 6.0
2018-Jan-20 22:00N 32°20' W 090°54'0 0.9
2018-Jan-20 21:30N 32°20' W 090°54'0 0.1
2018-Jan-20 21:00N 32°20' W 090°54'0 0.1
2018-Jan-20 20:30N 32°20' W 090°54'2 3.4
2018-Jan-20 20:00N 32°18' W 090°55'3 5.5
2018-Jan-20 19:30N 32°21' W 090°54'2 3.7
2018-Jan-20 19:00N 32°22' W 090°53'0 1.0
2018-Jan-20 18:30N 32°22' W 090°53'1 1.3
2018-Jan-20 18:01N 32°23' W 090°53'0 0.0
2018-Jan-20 17:30N 32°23' W 090°53'0 0.0
2018-Jan-20 17:00N 32°23' W 090°53'1 1.9
2018-Jan-20 16:30N 32°23' W 090°54'0 0.1
2018-Jan-20 16:00N 32°23' W 090°54'0 0.0
2018-Jan-20 15:30N 32°23' W 090°54'1 2.2
2018-Jan-20 15:00N 32°23' W 090°53'1 2.1
2018-Jan-20 14:30N 32°23' W 090°54'0 0.9
2018-Jan-20 14:00N 32°23' W 090°53'2 4.4
2018-Jan-20 13:31N 32°21' W 090°53'2 3.2
2018-Jan-20 13:00N 32°20' W 090°54'0 0.0
2018-Jan-20 12:30N 32°20' W 090°54'0 0.0
2018-Jan-20 11:59N 32°20' W 090°54'0 0.0
2018-Jan-20 11:28N 32°20' W 090°54'0 0.0
2018-Jan-20 11:00N 32°20' W 090°54'2 4.2
2018-Jan-20 10:30N 32°21' W 090°53'0 0.0
2018-Jan-20 10:00N 32°21' W 090°53'0 0.0
2018-Jan-20 09:30N 32°21' W 090°53'0 0.0
2018-Jan-20 09:00N 32°21' W 090°53'0 0.0
2018-Jan-20 08:30N 32°21' W 090°53'0 0.0
2018-Jan-20 08:00N 32°21' W 090°53'0 0.0
2018-Jan-20 07:30N 32°21' W 090°53'0 0.0
2018-Jan-20 07:00N 32°21' W 090°53'0 0.0
2018-Jan-20 06:29N 32°21' W 090°53'0 0.0
2018-Jan-20 05:59N 32°21' W 090°53'0 0.0
2018-Jan-20 05:30N 32°21' W 090°53'0 0.0
2018-Jan-20 05:00N 32°21' W 090°53'0 0.0
2018-Jan-20 04:30N 32°21' W 090°53'0 0.0
2018-Jan-20 03:59N 32°21' W 090°53'0 0.0
2018-Jan-20 03:30N 32°21' W 090°53'0 0.0
2018-Jan-20 03:00N 32°21' W 090°53'1 2.5
2018-Jan-20 02:30N 32°20' W 090°54'1 1.5
2018-Jan-20 02:00N 32°21' W 090°53'2 3.1
2018-Jan-20 01:30N 32°22' W 090°52'3 5.2
2018-Jan-20 01:00N 32°20' W 090°54'1 1.1
2018-Jan-20 00:30N 32°20' W 090°54'1 2.8
2018-Jan-20 00:00N 32°21' W 090°53'2 4.6
2018-Jan-19 23:30N 32°23' W 090°53'0 0.0
2018-Jan-19 23:00N 32°23' W 090°53'0 0.8
2018-Jan-19 22:29N 32°23' W 090°53'0 0.4
2018-Jan-19 22:00N 32°23' W 090°53'1 2.3
2018-Jan-19 21:30N 32°23' W 090°54'1 2.2
2018-Jan-19 21:00N 32°23' W 090°53'0 0.3
2018-Jan-19 20:29N 32°23' W 090°53'0 0.9
2018-Jan-19 20:00N 32°23' W 090°53'0 0.4
2018-Jan-19 19:30N 32°23' W 090°53'1 1.5
2018-Jan-19 19:00N 32°23' W 090°53'1 1.2
2018-Jan-19 18:30N 32°23' W 090°53'0 0.2
2018-Jan-19 18:00N 32°23' W 090°53'0 0.0
2018-Jan-19 17:29N 32°23' W 090°53'0 0.0
2018-Jan-19 17:00N 32°23' W 090°53'0 0.0
2018-Jan-19 16:30N 32°23' W 090°53'0 0.0
2018-Jan-19 16:00N 32°23' W 090°53'0 0.0
2018-Jan-19 15:30N 32°23' W 090°53'0 0.9
2018-Jan-19 15:00N 32°23' W 090°53'2 4.8
2018-Jan-19 14:30N 32°21' W 090°53'3 5.4
2018-Jan-19 14:00N 32°18' W 090°55'1 1.5
2018-Jan-19 13:30N 32°19' W 090°54'2 3.1
2018-Jan-19 13:00N 32°20' W 090°54'1 1.4
2018-Jan-19 12:30N 32°20' W 090°54'0 0.0
2018-Jan-19 12:00N 32°20' W 090°54'0 0.0
2018-Jan-19 11:30N 32°20' W 090°54'0 0.1
2018-Jan-19 11:00N 32°20' W 090°54'2 4.2
2018-Jan-19 10:30N 32°22' W 090°53'0 0.0
2018-Jan-19 10:00N 32°22' W 090°53'0 0.0
2018-Jan-19 09:30N 32°22' W 090°53'0 0.0
2018-Jan-19 09:00N 32°22' W 090°53'0 0.0
2018-Jan-19 08:30N 32°22' W 090°53'0 0.0
2018-Jan-19 08:00N 32°22' W 090°53'0 0.0
2018-Jan-19 07:30N 32°22' W 090°53'0 0.0
2018-Jan-19 07:00N 32°22' W 090°53'0 0.0
2018-Jan-19 06:30N 32°22' W 090°53'0 0.0
2018-Jan-19 05:59N 32°22' W 090°53'0 0.0
2018-Jan-19 05:30N 32°22' W 090°53'0 0.0
2018-Jan-19 05:00N 32°22' W 090°53'0 0.0
2018-Jan-19 04:30N 32°22' W 090°53'0 0.0
2018-Jan-19 04:00N 32°22' W 090°53'0 0.0
2018-Jan-19 03:30N 32°22' W 090°53'2 3.4
2018-Jan-19 03:00N 32°23' W 090°53'1 1.5
2018-Jan-19 02:30N 32°23' W 090°53'2 3.1
2018-Jan-19 02:00N 32°21' W 090°53'2 3.0
2018-Jan-19 01:30N 32°20' W 090°55'2 4.0
2018-Jan-19 01:00N 32°21' W 090°57'1 2.6
2018-Jan-19 00:30N 32°21' W 090°55'2 3.4
2018-Jan-19 00:01N 32°20' W 090°54'0 0.5
2018-Jan-18 23:30N 32°20' W 090°54'3 6.9
2018-Jan-18 23:01N 32°23' W 090°53'0 0.7
2018-Jan-18 22:31N 32°23' W 090°53'0 0.0
2018-Jan-18 22:00N 32°23' W 090°53'0 0.0
2018-Jan-18 21:31N 32°23' W 090°53'0 0.0
2018-Jan-18 21:01N 32°23' W 090°53'0 0.6
2018-Jan-18 20:30N 32°23' W 090°53'0 0.0
2018-Jan-18 20:01N 32°23' W 090°53'1 2.5
2018-Jan-18 19:31N 32°22' W 090°53'2 4.8
2018-Jan-18 19:01N 32°20' W 090°54'0 0.5
2018-Jan-18 18:31N 32°20' W 090°54'0 0.9
2018-Jan-18 18:01N 32°20' W 090°54'3 6.4
2018-Jan-18 17:30N 32°23' W 090°53'0 0.1
2018-Jan-18 17:00N 32°23' W 090°53'1 1.4
2018-Jan-18 16:31N 32°23' W 090°53'1 1.0
2018-Jan-18 16:01N 32°23' W 090°53'0 0.1
2018-Jan-18 15:31N 32°23' W 090°53'0 0.1
2018-Jan-18 15:01N 32°23' W 090°53'0 0.3
2018-Jan-18 14:31N 32°23' W 090°53'0 0.5
2018-Jan-18 14:01N 32°23' W 090°53'1 1.7
2018-Jan-18 13:30N 32°22' W 090°53'2 4.0
2018-Jan-18 13:00N 32°20' W 090°54'1 1.6
2018-Jan-18 12:31N 32°20' W 090°54'0 0.0
2018-Jan-18 12:01N 32°20' W 090°54'0 0.0
2018-Jan-18 11:31N 32°20' W 090°54'0 0.0
2018-Jan-18 11:00N 32°20' W 090°54'3 6.0
2018-Jan-18 10:31N 32°22' W 090°53'1 2.3
2018-Jan-18 10:00N 32°23' W 090°53'0 0.0
2018-Jan-18 09:30N 32°23' W 090°53'0 0.0
2018-Jan-18 09:01N 32°23' W 090°53'0 0.0
2018-Jan-18 08:31N 32°23' W 090°53'0 0.0
2018-Jan-18 08:01N 32°23' W 090°53'0 0.0
2018-Jan-18 07:28N 32°23' W 090°53'0 0.0
2018-Jan-18 07:01N 32°23' W 090°53'0 0.0
2018-Jan-18 06:30N 32°23' W 090°53'0 0.0
2018-Jan-18 06:01N 32°23' W 090°53'0 0.0
2018-Jan-18 05:31N 32°23' W 090°53'0 0.0
2018-Jan-18 05:01N 32°23' W 090°53'0 0.0
2018-Jan-18 04:30N 32°23' W 090°53'0 0.0
2018-Jan-18 04:01N 32°23' W 090°53'0 0.0
2018-Jan-18 03:30N 32°23' W 090°53'0 0.0
2018-Jan-18 03:00N 32°23' W 090°53'0 0.0
2018-Jan-18 02:31N 32°23' W 090°53'0 0.1
2018-Jan-18 02:00N 32°23' W 090°54'1 2.1
2018-Jan-18 01:31N 32°23' W 090°52'3 5.2
2018-Jan-18 01:01N 32°20' W 090°54'1 0.7
2018-Jan-18 00:00N 32°20' W 090°54'0 0.0
2018-Jan-17 23:58N 32°20' W 090°54'  
Track history (hours):
 
Tides and Currents Weather Stations Pressure Air Temp Water Temp Dewpoint Dewpoint Depression Visibility Wind Speed Wind Dir Waves Ship Positions

Synergy

Owner: ERGON MARINE & INDUSTRIAL SUPPLY, VICKSBURG, MS. More information available from US FCC via Universal Licensing System.

Last reported at 2018-Jan-23 16:00 UTC. Time now 2018-Jan-23 16:15 UTC.
Position N 32°22' W 090°53'.

MMSI: 367101470.

Date/timePositionNaut miles runAvg speedWind from/ knotsBaromVisibWave heightAir tempDewpointWater temp
2018-Jan-23 16:00N 32°22' W 090°53'1 2.6
2018-Jan-23 15:30N 32°23' W 090°54'1 2.6
2018-Jan-23 15:00N 32°22' W 090°53'3 5.8
2018-Jan-23 14:30N 32°21' W 090°55'3 5.7
2018-Jan-23 13:58N 32°21' W 090°59'2 3.3
2018-Jan-23 13:30N 32°21' W 090°57'3 5.9
2018-Jan-23 13:00N 32°20' W 090°54'1 1.9
2018-Jan-23 12:30N 32°21' W 090°53'2 3.3
2018-Jan-23 12:01N 32°20' W 090°54'0 0.0
2018-Jan-23 11:30N 32°20' W 090°54'1 2.1
2018-Jan-23 11:00N 32°21' W 090°53'1 1.8
2018-Jan-23 10:30N 32°21' W 090°53'0 0.0
2018-Jan-23 10:00N 32°21' W 090°53'0 0.0
2018-Jan-23 09:30N 32°21' W 090°53'0 0.0
2018-Jan-23 09:00N 32°21' W 090°53'0 0.0
2018-Jan-23 08:30N 32°21' W 090°53'0 0.0
2018-Jan-23 08:00N 32°21' W 090°53'3 5.2
2018-Jan-23 07:30N 32°19' W 090°54'1 2.5
2018-Jan-23 07:00N 32°18' W 090°55'3 5.4
2018-Jan-23 06:30N 32°20' W 090°54'1 1.5
2018-Jan-23 06:00N 32°21' W 090°53'2 3.6
2018-Jan-23 05:30N 32°23' W 090°53'1 1.6
2018-Jan-23 05:00N 32°23' W 090°53'0 0.0
2018-Jan-23 04:30N 32°23' W 090°53'0 0.1
2018-Jan-23 04:00N 32°23' W 090°54'0 0.5
2018-Jan-23 03:30N 32°23' W 090°53'0 0.1
2018-Jan-23 03:00N 32°23' W 090°53'0 0.0
2018-Jan-23 02:30N 32°23' W 090°53'0 0.3
2018-Jan-23 02:00N 32°23' W 090°53'1 2.4
2018-Jan-23 01:30N 32°22' W 090°53'1 2.7
2018-Jan-23 01:00N 32°21' W 090°53'2 3.1
2018-Jan-23 00:30N 32°20' W 090°54'0 0.0
2018-Jan-23 00:01N 32°20' W 090°54'0 0.0
2018-Jan-22 23:30N 32°20' W 090°54'3 5.9
2018-Jan-22 22:58N 32°23' W 090°52'1 2.2
2018-Jan-22 22:30N 32°23' W 090°53'0 0.0
2018-Jan-22 22:00N 32°23' W 090°53'0 0.0
2018-Jan-22 21:30N 32°23' W 090°53'0 0.0
2018-Jan-22 21:00N 32°23' W 090°53'1 1.1
2018-Jan-22 20:30N 32°23' W 090°54'1 1.2
2018-Jan-22 20:00N 32°23' W 090°53'0 0.1
2018-Jan-22 19:30N 32°23' W 090°53'0 0.0
2018-Jan-22 19:00N 32°23' W 090°53'0 0.0
2018-Jan-22 18:30N 32°23' W 090°53'0 0.0
2018-Jan-22 18:00N 32°23' W 090°53'0 0.0
2018-Jan-22 17:30N 32°23' W 090°53'0 0.0
2018-Jan-22 17:00N 32°23' W 090°53'0 0.0
2018-Jan-22 16:30N 32°23' W 090°53'0 0.0
2018-Jan-22 15:59N 32°23' W 090°53'0 0.0
2018-Jan-22 15:30N 32°23' W 090°53'0 0.3
2018-Jan-22 15:00N 32°23' W 090°53'0 0.7
2018-Jan-22 14:30N 32°23' W 090°53'1 2.8
2018-Jan-22 14:00N 32°22' W 090°53'2 4.1
2018-Jan-22 13:30N 32°20' W 090°54'0 0.3
2018-Jan-22 13:00N 32°20' W 090°54'0 0.0
2018-Jan-22 12:31N 32°20' W 090°54'0 0.0
2018-Jan-22 12:00N 32°20' W 090°54'0 0.0
2018-Jan-22 11:30N 32°20' W 090°54'3 5.3
2018-Jan-22 11:00N 32°22' W 090°53'1 1.3
2018-Jan-22 10:30N 32°22' W 090°53'0 0.0
2018-Jan-22 09:55N 32°22' W 090°53'0 0.0
2018-Jan-22 09:29N 32°22' W 090°53'0 0.0
2018-Jan-22 08:56N 32°22' W 090°53'0 0.0
2018-Jan-22 08:29N 32°22' W 090°53'0 0.0
2018-Jan-22 07:54N 32°22' W 090°53'0 0.7
2018-Jan-22 07:30N 32°22' W 090°53'1 2.6
2018-Jan-22 07:00N 32°21' W 090°53'1 2.1
2018-Jan-22 06:30N 32°20' W 090°54'2 4.1
2018-Jan-22 06:00N 32°21' W 090°56'0 0.2
2018-Jan-22 05:30N 32°21' W 090°56'2 3.4
2018-Jan-22 05:00N 32°21' W 090°55'3 5.6
2018-Jan-22 04:30N 32°23' W 090°53'1 1.6
2018-Jan-22 04:00N 32°23' W 090°53'0 0.0
2018-Jan-22 03:30N 32°23' W 090°53'0 0.0
2018-Jan-22 03:01N 32°23' W 090°53'0 0.1
2018-Jan-22 02:30N 32°23' W 090°53'0 0.9
2018-Jan-22 02:00N 32°23' W 090°54'1 2.4
2018-Jan-22 01:30N 32°23' W 090°53'1 2.5
2018-Jan-22 01:00N 32°22' W 090°53'2 4.3
2018-Jan-22 00:30N 32°20' W 090°54'0 0.0
2018-Jan-22 00:00N 32°20' W 090°54'1 2.0
2018-Jan-21 23:30N 32°21' W 090°54'2 4.9
2018-Jan-21 23:00N 32°23' W 090°53'1 1.7
2018-Jan-21 22:30N 32°23' W 090°54'0 0.2
2018-Jan-21 22:00N 32°23' W 090°53'1 1.0
2018-Jan-21 21:30N 32°23' W 090°54'0 0.3
2018-Jan-21 21:00N 32°23' W 090°54'0 0.3
2018-Jan-21 20:30N 32°23' W 090°54'1 1.1
2018-Jan-21 20:00N 32°23' W 090°53'0 0.0
2018-Jan-21 19:30N 32°23' W 090°53'0 0.0
2018-Jan-21 19:00N 32°23' W 090°53'0 0.0
2018-Jan-21 18:30N 32°23' W 090°53'0 0.0
2018-Jan-21 17:59N 32°23' W 090°53'0 0.2
2018-Jan-21 17:30N 32°23' W 090°53'0 1.0
2018-Jan-21 17:00N 32°23' W 090°53'2 4.7
2018-Jan-21 16:30N 32°21' W 090°53'2 3.5
2018-Jan-21 16:00N 32°22' W 090°53'1 2.1
2018-Jan-21 15:30N 32°23' W 090°53'1 1.7
2018-Jan-21 15:00N 32°23' W 090°52'1 1.1
2018-Jan-21 14:30N 32°22' W 090°53'1 2.1
2018-Jan-21 14:00N 32°21' W 090°53'2 3.4
2018-Jan-21 13:30N 32°20' W 090°54'0 0.0
2018-Jan-21 13:00N 32°20' W 090°54'0 0.0
2018-Jan-21 12:30N 32°20' W 090°54'0 0.0
2018-Jan-21 12:00N 32°20' W 090°54'0 0.0
2018-Jan-21 11:30N 32°20' W 090°54'4 7.0
2018-Jan-21 11:00N 32°23' W 090°53'1 1.0
2018-Jan-21 10:30N 32°23' W 090°53'0 0.0
2018-Jan-21 10:00N 32°23' W 090°53'0 0.0
2018-Jan-21 09:30N 32°23' W 090°53'0 0.0
2018-Jan-21 09:00N 32°23' W 090°53'0 0.0
2018-Jan-21 08:29N 32°23' W 090°53'0 0.0
2018-Jan-21 08:00N 32°23' W 090°53'0 0.0
2018-Jan-21 07:29N 32°23' W 090°53'0 0.0
2018-Jan-21 07:00N 32°23' W 090°53'0 0.0
2018-Jan-21 06:30N 32°23' W 090°53'0 0.0
2018-Jan-21 06:00N 32°23' W 090°53'0 0.0
2018-Jan-21 05:30N 32°23' W 090°53'0 0.0
2018-Jan-21 05:00N 32°23' W 090°53'0 0.8
2018-Jan-21 04:30N 32°23' W 090°53'0 0.2
2018-Jan-21 04:00N 32°23' W 090°53'1 1.6
2018-Jan-21 03:30N 32°22' W 090°53'0 0.1
2018-Jan-21 03:00N 32°22' W 090°53'0 0.6
2018-Jan-21 02:30N 32°23' W 090°52'0 0.7
2018-Jan-21 02:00N 32°23' W 090°53'0 0.3
2018-Jan-21 01:30N 32°23' W 090°53'2 4.5
2018-Jan-21 01:00N 32°21' W 090°53'1 2.4
2018-Jan-21 00:30N 32°20' W 090°54'2 4.6
2018-Jan-21 00:00N 32°22' W 090°53'2 3.5
2018-Jan-20 23:30N 32°23' W 090°54'0 0.0
2018-Jan-20 23:00N 32°23' W 090°54'1 2.2
2018-Jan-20 22:30N 32°23' W 090°53'3 6.0
2018-Jan-20 22:00N 32°20' W 090°54'0 0.9
2018-Jan-20 21:30N 32°20' W 090°54'0 0.1
2018-Jan-20 21:00N 32°20' W 090°54'0 0.1
2018-Jan-20 20:30N 32°20' W 090°54'2 3.4
2018-Jan-20 20:00N 32°18' W 090°55'3 5.5
2018-Jan-20 19:30N 32°21' W 090°54'2 3.7
2018-Jan-20 19:00N 32°22' W 090°53'0 1.0
2018-Jan-20 18:30N 32°22' W 090°53'1 1.3
2018-Jan-20 18:01N 32°23' W 090°53'0 0.0
2018-Jan-20 17:30N 32°23' W 090°53'0 0.0
2018-Jan-20 17:00N 32°23' W 090°53'1 1.9
2018-Jan-20 16:30N 32°23' W 090°54'0 0.1
2018-Jan-20 16:00N 32°23' W 090°54'0 0.0
2018-Jan-20 15:30N 32°23' W 090°54'1 2.2
2018-Jan-20 15:00N 32°23' W 090°53'1 2.1
2018-Jan-20 14:30N 32°23' W 090°54'0 0.9
2018-Jan-20 14:00N 32°23' W 090°53'2 4.4
2018-Jan-20 13:31N 32°21' W 090°53'2 3.2
2018-Jan-20 13:00N 32°20' W 090°54'0 0.0
2018-Jan-20 12:30N 32°20' W 090°54'0 0.0
2018-Jan-20 11:59N 32°20' W 090°54'0 0.0
2018-Jan-20 11:28N 32°20' W 090°54'0 0.0
2018-Jan-20 11:00N 32°20' W 090°54'2 4.2
2018-Jan-20 10:30N 32°21' W 090°53'0 0.0
2018-Jan-20 10:00N 32°21' W 090°53'0 0.0
2018-Jan-20 09:30N 32°21' W 090°53'0 0.0
2018-Jan-20 09:00N 32°21' W 090°53'0 0.0
2018-Jan-20 08:30N 32°21' W 090°53'0 0.0
2018-Jan-20 08:00N 32°21' W 090°53'0 0.0
2018-Jan-20 07:30N 32°21' W 090°53'0 0.0
2018-Jan-20 07:00N 32°21' W 090°53'0 0.0
2018-Jan-20 06:29N 32°21' W 090°53'0 0.0
2018-Jan-20 05:59N 32°21' W 090°53'0 0.0
2018-Jan-20 05:30N 32°21' W 090°53'0 0.0
2018-Jan-20 05:00N 32°21' W 090°53'0 0.0
2018-Jan-20 04:30N 32°21' W 090°53'0 0.0
2018-Jan-20 03:59N 32°21' W 090°53'0 0.0
2018-Jan-20 03:30N 32°21' W 090°53'0 0.0
2018-Jan-20 03:00N 32°21' W 090°53'1 2.5
2018-Jan-20 02:30N 32°20' W 090°54'1 1.5
2018-Jan-20 02:00N 32°21' W 090°53'2 3.1
2018-Jan-20 01:30N 32°22' W 090°52'3 5.2
2018-Jan-20 01:00N 32°20' W 090°54'1 1.1
2018-Jan-20 00:30N 32°20' W 090°54'1 2.8
2018-Jan-20 00:00N 32°21' W 090°53'2 4.6
2018-Jan-19 23:30N 32°23' W 090°53'0 0.0
2018-Jan-19 23:00N 32°23' W 090°53'0 0.8
2018-Jan-19 22:29N 32°23' W 090°53'0 0.4
2018-Jan-19 22:00N 32°23' W 090°53'1 2.3
2018-Jan-19 21:30N 32°23' W 090°54'1 2.2
2018-Jan-19 21:00N 32°23' W 090°53'0 0.3
2018-Jan-19 20:29N 32°23' W 090°53'0 0.9
2018-Jan-19 20:00N 32°23' W 090°53'0 0.4
2018-Jan-19 19:30N 32°23' W 090°53'1 1.5
2018-Jan-19 19:00N 32°23' W 090°53'1 1.2
2018-Jan-19 18:30N 32°23' W 090°53'0 0.2
2018-Jan-19 18:00N 32°23' W 090°53'0 0.0
2018-Jan-19 17:29N 32°23' W 090°53'0 0.0
2018-Jan-19 17:00N 32°23' W 090°53'0 0.0
2018-Jan-19 16:30N 32°23' W 090°53'0 0.0
2018-Jan-19 16:00N 32°23' W 090°53'0 0.0
2018-Jan-19 15:30N 32°23' W 090°53'0 0.9
2018-Jan-19 15:00N 32°23' W 090°53'2 4.8
2018-Jan-19 14:30N 32°21' W 090°53'3 5.4
2018-Jan-19 14:00N 32°18' W 090°55'1 1.5
2018-Jan-19 13:30N 32°19' W 090°54'2 3.1
2018-Jan-19 13:00N 32°20' W 090°54'1 1.4
2018-Jan-19 12:30N 32°20' W 090°54'0 0.0
2018-Jan-19 12:00N 32°20' W 090°54'0 0.0
2018-Jan-19 11:30N 32°20' W 090°54'0 0.1
2018-Jan-19 11:00N 32°20' W 090°54'2 4.2
2018-Jan-19 10:30N 32°22' W 090°53'0 0.0
2018-Jan-19 10:00N 32°22' W 090°53'0 0.0
2018-Jan-19 09:30N 32°22' W 090°53'0 0.0
2018-Jan-19 09:00N 32°22' W 090°53'0 0.0
2018-Jan-19 08:30N 32°22' W 090°53'0 0.0
2018-Jan-19 08:00N 32°22' W 090°53'0 0.0
2018-Jan-19 07:30N 32°22' W 090°53'0 0.0
2018-Jan-19 07:00N 32°22' W 090°53'0 0.0
2018-Jan-19 06:30N 32°22' W 090°53'0 0.0
2018-Jan-19 05:59N 32°22' W 090°53'0 0.0
2018-Jan-19 05:30N 32°22' W 090°53'0 0.0
2018-Jan-19 05:00N 32°22' W 090°53'0 0.0
2018-Jan-19 04:30N 32°22' W 090°53'0 0.0
2018-Jan-19 04:00N 32°22' W 090°53'0 0.0
2018-Jan-19 03:30N 32°22' W 090°53'2 3.4
2018-Jan-19 03:00N 32°23' W 090°53'1 1.5
2018-Jan-19 02:30N 32°23' W 090°53'2 3.1
2018-Jan-19 02:00N 32°21' W 090°53'2 3.0
2018-Jan-19 01:30N 32°20' W 090°55'2 4.0
2018-Jan-19 01:00N 32°21' W 090°57'1 2.6
2018-Jan-19 00:30N 32°21' W 090°55'2 3.4
2018-Jan-19 00:01N 32°20' W 090°54'0 0.5
2018-Jan-18 23:30N 32°20' W 090°54'3 6.9
2018-Jan-18 23:01N 32°23' W 090°53'0 0.7
2018-Jan-18 22:31N 32°23' W 090°53'0 0.0
2018-Jan-18 22:00N 32°23' W 090°53'0 0.0
2018-Jan-18 21:31N 32°23' W 090°53'0 0.0
2018-Jan-18 21:01N 32°23' W 090°53'0 0.6
2018-Jan-18 20:30N 32°23' W 090°53'0 0.0
2018-Jan-18 20:01N 32°23' W 090°53'1 2.5
2018-Jan-18 19:31N 32°22' W 090°53'2 4.8
2018-Jan-18 19:01N 32°20' W 090°54'0 0.5
2018-Jan-18 18:31N 32°20' W 090°54'0 0.9
2018-Jan-18 18:01N 32°20' W 090°54'3 6.4
2018-Jan-18 17:30N 32°23' W 090°53'0 0.1
2018-Jan-18 17:00N 32°23' W 090°53'1 1.4
2018-Jan-18 16:31N 32°23' W 090°53'1 1.0
2018-Jan-18 16:01N 32°23' W 090°53'0 0.1
2018-Jan-18 15:31N 32°23' W 090°53'0 0.1
2018-Jan-18 15:01N 32°23' W 090°53'0 0.3
2018-Jan-18 14:31N 32°23' W 090°53'0 0.5
2018-Jan-18 14:01N 32°23' W 090°53'1 1.7
2018-Jan-18 13:30N 32°22' W 090°53'2 4.0
2018-Jan-18 13:00N 32°20' W 090°54'1 1.6
2018-Jan-18 12:31N 32°20' W 090°54'0 0.0
2018-Jan-18 12:01N 32°20' W 090°54'0 0.0
2018-Jan-18 11:31N 32°20' W 090°54'0 0.0
2018-Jan-18 11:00N 32°20' W 090°54'3 6.0
2018-Jan-18 10:31N 32°22' W 090°53'1 2.3
2018-Jan-18 10:00N 32°23' W 090°53'0 0.0
2018-Jan-18 09:30N 32°23' W 090°53'0 0.0
2018-Jan-18 09:01N 32°23' W 090°53'0 0.0
2018-Jan-18 08:31N 32°23' W 090°53'0 0.0
2018-Jan-18 08:01N 32°23' W 090°53'0 0.0
2018-Jan-18 07:28N 32°23' W 090°53'0 0.0
2018-Jan-18 07:01N 32°23' W 090°53'0 0.0
2018-Jan-18 06:30N 32°23' W 090°53'0 0.0
2018-Jan-18 06:01N 32°23' W 090°53'0 0.0
2018-Jan-18 05:31N 32°23' W 090°53'0 0.0
2018-Jan-18 05:01N 32°23' W 090°53'0 0.0
2018-Jan-18 04:30N 32°23' W 090°53'0 0.0
2018-Jan-18 04:01N 32°23' W 090°53'0 0.0
2018-Jan-18 03:30N 32°23' W 090°53'0 0.0
2018-Jan-18 03:00N 32°23' W 090°53'0 0.0
2018-Jan-18 02:31N 32°23' W 090°53'0 0.1
2018-Jan-18 02:00N 32°23' W 090°54'1 2.1
2018-Jan-18 01:31N 32°23' W 090°52'3 5.2
2018-Jan-18 01:01N 32°20' W 090°54'1 0.7
2018-Jan-18 00:00N 32°20' W 090°54'0 0.0
2018-Jan-17 23:58N 32°20' W 090°54'  

Dump ship's entire track history